LIC0209 EGPH-LEZL
Flight info
| Callsign | LIC0209 |
|---|---|
| Flight time | 3h 12m |
| Altitude | 37000 |
| Route | GOSAM P600 FENIK L612 NAVSO DCT ADZOP DCT EGTOC DCT NOKIN N862 KARNO DCT ALHUP DCT ABWIV DCT PACSE DCT TONQU DCT SALCO DCT NOVAN DCT DELOG N864 MONTO N857 HIJ |
| Aircraft | A320/M-SDE3FGHIRWY/LB1 |
Departure
| Time | 2026-04-21 18:37 |
|---|---|
| Airport | Edinburgh Airport (EGPH) |
Arrival
| Time | 2026-04-21 21:50 |
|---|---|
| Airport | Seville Airport (LEZL) |
| Time | Latitude | Longitude | Altitude | Speed | Heading |
|---|---|---|---|---|---|
| 2026-04-21 18:21 | 55.94702 | -3.36602 | 112 ft | 0 kts | 89° |
| 2026-04-21 18:28 | 55.94702 | -3.36603 | 116 ft | 1 kts | 89° |
| 2026-04-21 18:29 | 55.94701 | -3.36646 | 112 ft | 4 kts | 83° |
| 2026-04-21 18:29 | 55.94696 | -3.36693 | 113 ft | 4 kts | 68° |
| 2026-04-21 18:29 | 55.94682 | -3.36729 | 114 ft | 4 kts | 25° |
| 2026-04-21 18:29 | 55.94670 | -3.36735 | 112 ft | 1 kts | 359° |
| 2026-04-21 18:30 | 55.94669 | -3.36735 | 112 ft | 1 kts | 359° |
| 2026-04-21 18:32 | 55.94673 | -3.36735 | 112 ft | 5 kts | 359° |
| 2026-04-21 18:32 | 55.94754 | -3.36753 | 116 ft | 11 kts | 341° |
| 2026-04-21 18:32 | 55.94839 | -3.36779 | 116 ft | 14 kts | 356° |
| 2026-04-21 18:33 | 55.94916 | -3.36874 | 113 ft | 15 kts | 272° |
| 2026-04-21 18:33 | 55.94872 | -3.37041 | 114 ft | 15 kts | 239° |
| 2026-04-21 18:33 | 55.94821 | -3.37202 | 113 ft | 15 kts | 239° |
| 2026-04-21 18:33 | 55.94769 | -3.37359 | 112 ft | 15 kts | 239° |
| 2026-04-21 18:34 | 55.94716 | -3.37510 | 115 ft | 14 kts | 242° |
| 2026-04-21 18:34 | 55.94665 | -3.37661 | 114 ft | 14 kts | 234° |
| 2026-04-21 18:34 | 55.94617 | -3.37810 | 115 ft | 16 kts | 239° |
| 2026-04-21 18:34 | 55.94556 | -3.37987 | 112 ft | 17 kts | 238° |
| 2026-04-21 18:35 | 55.94516 | -3.38106 | 112 ft | 17 kts | 238° |
| 2026-04-21 18:35 | 55.94437 | -3.38338 | 114 ft | 16 kts | 239° |
| 2026-04-21 18:35 | 55.94383 | -3.38512 | 114 ft | 16 kts | 243° |
| 2026-04-21 18:35 | 55.94323 | -3.38672 | 114 ft | 15 kts | 236° |
| 2026-04-21 18:36 | 55.94291 | -3.38843 | 116 ft | 15 kts | 292° |
| 2026-04-21 18:36 | 55.94369 | -3.38955 | 114 ft | 15 kts | 332° |
| 2026-04-21 18:36 | 55.94452 | -3.38859 | 114 ft | 17 kts | 59° |
| 2026-04-21 18:36 | 55.94503 | -3.38712 | 113 ft | 0 kts | 58° |
| 2026-04-21 18:37 | 55.94533 | -3.38624 | 112 ft | 41 kts | 58° |
| 2026-04-21 18:37 | 55.94833 | -3.37734 | 111 ft | 121 kts | 59° |
| 2026-04-21 18:37 | 55.95361 | -3.36142 | 315 ft | 164 kts | 59° |
| 2026-04-21 18:37 | 55.95947 | -3.34381 | 1150 ft | 166 kts | 59° |
| 2026-04-21 18:38 | 55.96711 | -3.32838 | 2138 ft | 169 kts | 46° |
| 2026-04-21 18:38 | 55.97610 | -3.31399 | 2684 ft | 189 kts | 45° |
| 2026-04-21 18:38 | 55.98482 | -3.30048 | 3153 ft | 206 kts | 45° |
| 2026-04-21 18:38 | 55.99688 | -3.28389 | 3781 ft | 235 kts | 31° |
| 2026-04-21 18:39 | 56.01361 | -3.27733 | 4658 ft | 260 kts | 1° |
| 2026-04-21 18:39 | 56.03135 | -3.28732 | 5597 ft | 280 kts | 330° |
| 2026-04-21 18:39 | 56.04453 | -3.31301 | 5908 ft | 286 kts | 297° |
| 2026-04-21 18:39 | 56.04815 | -3.34765 | 6000 ft | 287 kts | 263° |
| 2026-04-21 18:40 | 56.04107 | -3.38044 | 6013 ft | 284 kts | 233° |
| 2026-04-21 18:40 | 56.02905 | -3.40842 | 6015 ft | 284 kts | 230° |
| 2026-04-21 18:40 | 56.02192 | -3.42816 | 6006 ft | 287 kts | 241° |
| 2026-04-21 18:40 | 56.01230 | -3.47278 | 6007 ft | 288 kts | 251° |
| 2026-04-21 18:41 | 56.00680 | -3.50721 | 6007 ft | 289 kts | 254° |
| 2026-04-21 18:41 | 56.00192 | -3.54203 | 6010 ft | 289 kts | 255° |
| 2026-04-21 18:41 | 55.99721 | -3.57703 | 6011 ft | 290 kts | 255° |
| 2026-04-21 18:41 | 55.99248 | -3.61197 | 6014 ft | 289 kts | 255° |
| 2026-04-21 18:42 | 55.98770 | -3.64677 | 6015 ft | 289 kts | 255° |
| 2026-04-21 18:42 | 55.98285 | -3.68149 | 6012 ft | 288 kts | 255° |
| 2026-04-21 18:42 | 55.97791 | -3.71626 | 6012 ft | 289 kts | 255° |
| 2026-04-21 18:42 | 55.97295 | -3.75093 | 6007 ft | 289 kts | 255° |
| 2026-04-21 18:43 | 55.96795 | -3.78571 | 6007 ft | 289 kts | 254° |
| 2026-04-21 18:43 | 55.96293 | -3.82044 | 6004 ft | 289 kts | 255° |
| 2026-04-21 18:43 | 55.95787 | -3.85523 | 6005 ft | 289 kts | 254° |
| 2026-04-21 18:43 | 55.95283 | -3.88976 | 6004 ft | 288 kts | 254° |
| 2026-04-21 18:44 | 55.94777 | -3.92451 | 6001 ft | 289 kts | 254° |
| 2026-04-21 18:44 | 55.94271 | -3.95922 | 6000 ft | 289 kts | 254° |
| 2026-04-21 18:44 | 55.93564 | -3.99267 | 6028 ft | 289 kts | 237° |
| 2026-04-21 18:44 | 55.92277 | -4.01987 | 6819 ft | 291 kts | 214° |
| 2026-04-21 18:45 | 55.90570 | -4.03819 | 8104 ft | 285 kts | 204° |
| 2026-04-21 18:45 | 55.88800 | -4.05428 | 9305 ft | 287 kts | 202° |
| 2026-04-21 18:45 | 55.86996 | -4.07013 | 10433 ft | 291 kts | 201° |
| 2026-04-21 18:45 | 55.85132 | -4.08617 | 11127 ft | 310 kts | 201° |
| 2026-04-21 18:46 | 55.83116 | -4.10335 | 11667 ft | 330 kts | 202° |
| 2026-04-21 18:46 | 55.81015 | -4.12134 | 12531 ft | 339 kts | 202° |
| 2026-04-21 18:46 | 55.78880 | -4.13972 | 13497 ft | 344 kts | 202° |
| 2026-04-21 18:46 | 55.76712 | -4.15843 | 14444 ft | 348 kts | 202° |
| 2026-04-21 18:47 | 55.74520 | -4.17733 | 15290 ft | 353 kts | 202° |
| 2026-04-21 18:47 | 55.72297 | -4.19650 | 16128 ft | 357 kts | 202° |
| 2026-04-21 18:47 | 55.69993 | -4.21280 | 16948 ft | 357 kts | 192° |
| 2026-04-21 18:47 | 55.67548 | -4.21981 | 17791 ft | 356 kts | 179° |
| 2026-04-21 18:48 | 55.65080 | -4.21687 | 18612 ft | 356 kts | 166° |
| 2026-04-21 18:48 | 55.62710 | -4.20431 | 19337 ft | 356 kts | 154° |
| 2026-04-21 18:48 | 55.60510 | -4.18395 | 20024 ft | 359 kts | 149° |
| 2026-04-21 18:48 | 55.58316 | -4.16236 | 20720 ft | 363 kts | 149° |
| 2026-04-21 18:49 | 55.56099 | -4.14066 | 21415 ft | 367 kts | 149° |
| 2026-04-21 18:49 | 55.53849 | -4.11869 | 22071 ft | 372 kts | 149° |
| 2026-04-21 18:49 | 55.52315 | -4.10373 | 22504 ft | 375 kts | 149° |
| 2026-04-21 18:49 | 55.49263 | -4.07399 | 23350 ft | 381 kts | 150° |
| 2026-04-21 18:50 | 55.46934 | -4.05137 | 24014 ft | 384 kts | 149° |
| 2026-04-21 18:50 | 55.44593 | -4.02869 | 24644 ft | 385 kts | 150° |
| 2026-04-21 18:50 | 55.42224 | -4.00575 | 25089 ft | 391 kts | 150° |
| 2026-04-21 18:50 | 55.39822 | -3.98247 | 25540 ft | 397 kts | 150° |
| 2026-04-21 18:51 | 55.37382 | -3.95882 | 25960 ft | 403 kts | 151° |
| 2026-04-21 18:51 | 55.34907 | -3.93491 | 26392 ft | 409 kts | 151° |
| 2026-04-21 18:51 | 55.32396 | -3.91072 | 26823 ft | 414 kts | 152° |
| 2026-04-21 18:51 | 55.29851 | -3.88626 | 27228 ft | 420 kts | 152° |
| 2026-04-21 18:52 | 55.27266 | -3.86148 | 27608 ft | 426 kts | 153° |
| 2026-04-21 18:52 | 55.24656 | -3.83651 | 28159 ft | 427 kts | 152° |
| 2026-04-21 18:52 | 55.21993 | -3.81326 | 28693 ft | 429 kts | 158° |
| 2026-04-21 18:52 | 55.19161 | -3.79613 | 29112 ft | 434 kts | 164° |
| 2026-04-21 18:53 | 55.16257 | -3.78014 | 29412 ft | 441 kts | 164° |
| 2026-04-21 18:53 | 55.13314 | -3.76404 | 29813 ft | 445 kts | 164° |
| 2026-04-21 18:53 | 55.10342 | -3.74784 | 30243 ft | 449 kts | 165° |
| 2026-04-21 18:53 | 55.07342 | -3.73152 | 30646 ft | 453 kts | 165° |
| 2026-04-21 18:54 | 55.04319 | -3.71509 | 30995 ft | 457 kts | 165° |
| 2026-04-21 18:54 | 55.01280 | -3.69855 | 31349 ft | 460 kts | 165° |
| 2026-04-21 18:54 | 54.98217 | -3.68186 | 31698 ft | 462 kts | 164° |
| 2026-04-21 18:54 | 54.95141 | -3.66513 | 32042 ft | 465 kts | 164° |
| 2026-04-21 18:55 | 54.93086 | -3.65397 | 32191 ft | 470 kts | 166° |
| 2026-04-21 18:55 | 54.88870 | -3.63124 | 32495 ft | 477 kts | 166° |
| 2026-04-21 18:55 | 54.85705 | -3.61421 | 32960 ft | 476 kts | 165° |
| 2026-04-21 18:55 | 54.82547 | -3.59717 | 33485 ft | 474 kts | 165° |
| 2026-04-21 18:56 | 54.79405 | -3.58018 | 34027 ft | 472 kts | 165° |
| 2026-04-21 18:56 | 54.76280 | -3.56331 | 34561 ft | 470 kts | 165° |
| 2026-04-21 18:56 | 54.73167 | -3.54654 | 35001 ft | 468 kts | 165° |
| 2026-04-21 18:56 | 54.70061 | -3.52984 | 35439 ft | 467 kts | 165° |
| 2026-04-21 18:57 | 54.66961 | -3.51322 | 35808 ft | 467 kts | 165° |
| 2026-04-21 18:57 | 54.63904 | -3.49689 | 36172 ft | 466 kts | 165° |
| 2026-04-21 18:57 | 54.60802 | -3.48039 | 36549 ft | 466 kts | 165° |
| 2026-04-21 18:57 | 54.57703 | -3.46394 | 36890 ft | 466 kts | 164° |
| 2026-04-21 18:58 | 54.54606 | -3.44750 | 37263 ft | 465 kts | 164° |
| 2026-04-21 18:58 | 54.51507 | -3.43102 | 37419 ft | 465 kts | 164° |
| 2026-04-21 18:58 | 54.48427 | -3.41464 | 37438 ft | 463 kts | 164° |
| 2026-04-21 18:59 | 54.42277 | -3.38206 | 37437 ft | 462 kts | 165° |
| 2026-04-21 18:59 | 54.36124 | -3.34949 | 37433 ft | 463 kts | 165° |
| 2026-04-21 19:00 | 54.29967 | -3.31709 | 37428 ft | 462 kts | 164° |
| 2026-04-21 19:00 | 54.23821 | -3.28495 | 37427 ft | 462 kts | 165° |
| 2026-04-21 19:01 | 54.17631 | -3.25580 | 37410 ft | 460 kts | 173° |
| 2026-04-21 19:01 | 54.11277 | -3.24471 | 37417 ft | 459 kts | 177° |
| 2026-04-21 19:02 | 54.04913 | -3.23486 | 37415 ft | 459 kts | 177° |
| 2026-04-21 19:02 | 53.98574 | -3.22184 | 37411 ft | 461 kts | 169° |
| 2026-04-21 19:03 | 53.92313 | -3.19789 | 37407 ft | 461 kts | 169° |
| 2026-04-21 19:03 | 53.86057 | -3.17421 | 37411 ft | 461 kts | 170° |
| 2026-04-21 19:04 | 53.79805 | -3.15053 | 37415 ft | 460 kts | 169° |
| 2026-04-21 19:04 | 53.73554 | -3.12693 | 37416 ft | 460 kts | 170° |
| 2026-04-21 19:05 | 53.67296 | -3.10350 | 37405 ft | 460 kts | 169° |
| 2026-04-21 19:05 | 53.61042 | -3.08008 | 37402 ft | 460 kts | 169° |
| 2026-04-21 19:06 | 53.55863 | -3.06064 | 37400 ft | 461 kts | 169° |
| 2026-04-21 19:06 | 53.49587 | -3.03721 | 37385 ft | 461 kts | 170° |
| 2026-04-21 19:07 | 53.42313 | -3.01023 | 37381 ft | 461 kts | 169° |
| 2026-04-21 19:07 | 53.37070 | -2.99077 | 37382 ft | 461 kts | 170° |
| 2026-04-21 19:08 | 53.30813 | -2.96771 | 37383 ft | 461 kts | 170° |
| 2026-04-21 19:08 | 53.24556 | -2.94469 | 37383 ft | 461 kts | 170° |
| 2026-04-21 19:09 | 53.18293 | -2.92169 | 37379 ft | 461 kts | 170° |
| 2026-04-21 19:09 | 53.12033 | -2.89889 | 37383 ft | 461 kts | 170° |
| 2026-04-21 19:10 | 53.05722 | -2.88476 | 37383 ft | 455 kts | 184° |
| 2026-04-21 19:10 | 52.99412 | -2.88997 | 37381 ft | 454 kts | 186° |
| 2026-04-21 19:11 | 52.93135 | -2.89535 | 37370 ft | 454 kts | 186° |
| 2026-04-21 19:11 | 52.86854 | -2.90438 | 37368 ft | 452 kts | 191° |
| 2026-04-21 19:12 | 52.80620 | -2.91901 | 37363 ft | 452 kts | 191° |
| 2026-04-21 19:12 | 52.74393 | -2.93359 | 37364 ft | 452 kts | 191° |
| 2026-04-21 19:13 | 52.68128 | -2.94372 | 37350 ft | 454 kts | 186° |
| 2026-04-21 19:13 | 52.61822 | -2.94889 | 37343 ft | 454 kts | 186° |
| 2026-04-21 19:14 | 52.55514 | -2.95413 | 37343 ft | 454 kts | 186° |
| 2026-04-21 19:14 | 52.49209 | -2.95941 | 37341 ft | 454 kts | 186° |
| 2026-04-21 19:15 | 52.42899 | -2.96466 | 37329 ft | 454 kts | 186° |
| 2026-04-21 19:15 | 52.36585 | -2.96978 | 37343 ft | 454 kts | 186° |
| 2026-04-21 19:16 | 52.30272 | -2.97495 | 37333 ft | 454 kts | 186° |
| 2026-04-21 19:16 | 52.23964 | -2.98016 | 37318 ft | 454 kts | 186° |
| 2026-04-21 19:17 | 52.14521 | -2.98771 | 37325 ft | 452 kts | 186° |
| 2026-04-21 19:17 | 52.08248 | -2.99275 | 37325 ft | 451 kts | 186° |
| 2026-04-21 19:18 | 52.01979 | -2.99790 | 37351 ft | 451 kts | 186° |
| 2026-04-21 19:18 | 51.95718 | -3.00301 | 37370 ft | 450 kts | 186° |
| 2026-04-21 19:19 | 51.89463 | -3.00801 | 37401 ft | 450 kts | 186° |
| 2026-04-21 19:19 | 51.83232 | -3.01627 | 37429 ft | 448 kts | 190° |
| 2026-04-21 19:20 | 51.76815 | -3.03074 | 37430 ft | 447 kts | 192° |
| 2026-04-21 19:20 | 51.70654 | -3.04541 | 37442 ft | 448 kts | 192° |
| 2026-04-21 19:21 | 51.64482 | -3.05874 | 37429 ft | 447 kts | 191° |
| 2026-04-21 19:21 | 51.58306 | -3.07118 | 37398 ft | 447 kts | 191° |
| 2026-04-21 19:22 | 51.52134 | -3.08364 | 37249 ft | 447 kts | 191° |
| 2026-04-21 19:22 | 51.45976 | -3.09644 | 37252 ft | 446 kts | 191° |
| 2026-04-21 19:23 | 51.39824 | -3.10918 | 37252 ft | 445 kts | 191° |
| 2026-04-21 19:23 | 51.33680 | -3.12167 | 37251 ft | 445 kts | 191° |
| 2026-04-21 19:24 | 51.27536 | -3.13417 | 37237 ft | 445 kts | 191° |
| 2026-04-21 19:24 | 51.21407 | -3.14681 | 37246 ft | 444 kts | 191° |
| 2026-04-21 19:25 | 51.15280 | -3.15935 | 37250 ft | 444 kts | 191° |
| 2026-04-21 19:25 | 51.09159 | -3.17173 | 37246 ft | 443 kts | 191° |
| 2026-04-21 19:26 | 51.03037 | -3.18407 | 37247 ft | 443 kts | 191° |
| 2026-04-21 19:26 | 50.96921 | -3.19642 | 37235 ft | 443 kts | 191° |
| 2026-04-21 19:27 | 50.90804 | -3.20883 | 37226 ft | 443 kts | 191° |
| 2026-04-21 19:27 | 50.84692 | -3.22110 | 37226 ft | 443 kts | 191° |
| 2026-04-21 19:28 | 50.78623 | -3.23312 | 37219 ft | 442 kts | 191° |
| 2026-04-21 19:28 | 50.72524 | -3.24530 | 37222 ft | 441 kts | 191° |
| 2026-04-21 19:29 | 50.66432 | -3.25744 | 37211 ft | 441 kts | 191° |
| 2026-04-21 19:29 | 50.60347 | -3.26950 | 37211 ft | 440 kts | 191° |
| 2026-04-21 19:30 | 50.54273 | -3.28159 | 37215 ft | 440 kts | 191° |
| 2026-04-21 19:30 | 50.48206 | -3.29358 | 37218 ft | 439 kts | 191° |
| 2026-04-21 19:31 | 50.42139 | -3.30550 | 37214 ft | 440 kts | 191° |
| 2026-04-21 19:31 | 50.36119 | -3.32087 | 37205 ft | 437 kts | 196° |
| 2026-04-21 19:32 | 50.30180 | -3.34108 | 37212 ft | 436 kts | 196° |
| 2026-04-21 19:32 | 50.24243 | -3.36098 | 37211 ft | 436 kts | 195° |
| 2026-04-21 19:33 | 50.18316 | -3.38087 | 37206 ft | 435 kts | 196° |
| 2026-04-21 19:33 | 50.12399 | -3.40090 | 37195 ft | 435 kts | 197° |
| 2026-04-21 19:34 | 50.06489 | -3.42076 | 37192 ft | 434 kts | 195° |
| 2026-04-21 19:34 | 50.00588 | -3.44049 | 37188 ft | 434 kts | 196° |
| 2026-04-21 19:35 | 49.91738 | -3.46992 | 37171 ft | 433 kts | 197° |
| 2026-04-21 19:36 | 49.85845 | -3.48946 | 37174 ft | 433 kts | 196° |
| 2026-04-21 19:36 | 49.79959 | -3.50898 | 37166 ft | 433 kts | 196° |
| 2026-04-21 19:37 | 49.74052 | -3.52770 | 37165 ft | 435 kts | 192° |
| 2026-04-21 19:37 | 49.67975 | -3.53253 | 37149 ft | 438 kts | 186° |
| 2026-04-21 19:38 | 49.61886 | -3.53575 | 37150 ft | 437 kts | 186° |
| 2026-04-21 19:38 | 49.56832 | -3.53850 | 37155 ft | 437 kts | 186° |
| 2026-04-21 19:39 | 49.49732 | -3.54232 | 37146 ft | 437 kts | 186° |
| 2026-04-21 19:39 | 49.43655 | -3.54549 | 37137 ft | 436 kts | 186° |
| 2026-04-21 19:40 | 49.37588 | -3.54867 | 37135 ft | 436 kts | 186° |
| 2026-04-21 19:40 | 49.32550 | -3.55128 | 37135 ft | 436 kts | 186° |
| 2026-04-21 19:41 | 49.26490 | -3.55441 | 37116 ft | 435 kts | 186° |
| 2026-04-21 19:41 | 49.20452 | -3.55751 | 37127 ft | 433 kts | 186° |
| 2026-04-21 19:42 | 49.14435 | -3.56061 | 37129 ft | 432 kts | 186° |
| 2026-04-21 19:42 | 49.08441 | -3.56369 | 37123 ft | 431 kts | 186° |
| 2026-04-21 19:43 | 49.02454 | -3.56680 | 37103 ft | 430 kts | 186° |
| 2026-04-21 19:43 | 48.96474 | -3.56997 | 37096 ft | 430 kts | 186° |
| 2026-04-21 19:44 | 48.90492 | -3.57304 | 37092 ft | 430 kts | 186° |
| 2026-04-21 19:44 | 48.84511 | -3.57608 | 37090 ft | 430 kts | 186° |
| 2026-04-21 19:45 | 48.78530 | -3.57908 | 37086 ft | 430 kts | 185° |
| 2026-04-21 19:45 | 48.72547 | -3.58218 | 37088 ft | 430 kts | 186° |
| 2026-04-21 19:46 | 48.66569 | -3.58527 | 37088 ft | 430 kts | 186° |
| 2026-04-21 19:46 | 48.60589 | -3.58826 | 37085 ft | 430 kts | 186° |
| 2026-04-21 19:47 | 48.54611 | -3.59129 | 37074 ft | 430 kts | 185° |
| 2026-04-21 19:47 | 48.48626 | -3.59437 | 37065 ft | 430 kts | 185° |
| 2026-04-21 19:48 | 48.42641 | -3.59735 | 37068 ft | 431 kts | 185° |
| 2026-04-21 19:48 | 48.36652 | -3.60024 | 37061 ft | 430 kts | 185° |
| 2026-04-21 19:49 | 48.30682 | -3.60322 | 37070 ft | 429 kts | 185° |
| 2026-04-21 19:49 | 48.24728 | -3.60625 | 37061 ft | 428 kts | 185° |
| 2026-04-21 19:50 | 48.18822 | -3.60919 | 37056 ft | 427 kts | 185° |
| 2026-04-21 19:50 | 48.12882 | -3.61219 | 37053 ft | 427 kts | 186° |
| 2026-04-21 19:51 | 48.06951 | -3.61525 | 37049 ft | 426 kts | 185° |
| 2026-04-21 19:51 | 48.01025 | -3.61823 | 37049 ft | 426 kts | 185° |
| 2026-04-21 19:52 | 47.95104 | -3.62114 | 37026 ft | 425 kts | 185° |
| 2026-04-21 19:52 | 47.89192 | -3.62405 | 37027 ft | 425 kts | 185° |
| 2026-04-21 19:53 | 47.83282 | -3.62696 | 37031 ft | 425 kts | 185° |
| 2026-04-21 19:53 | 47.77376 | -3.62982 | 37038 ft | 425 kts | 185° |
| 2026-04-21 19:54 | 47.71470 | -3.63281 | 37030 ft | 424 kts | 185° |
| 2026-04-21 19:54 | 47.65571 | -3.63576 | 37029 ft | 424 kts | 185° |
| 2026-04-21 19:55 | 47.59676 | -3.63853 | 37025 ft | 424 kts | 185° |
| 2026-04-21 19:55 | 47.53780 | -3.64137 | 37013 ft | 424 kts | 185° |
| 2026-04-21 19:56 | 47.47886 | -3.64420 | 37013 ft | 424 kts | 185° |
| 2026-04-21 19:56 | 47.41996 | -3.64701 | 37000 ft | 423 kts | 185° |
| 2026-04-21 19:57 | 47.36109 | -3.64999 | 37003 ft | 423 kts | 185° |
| 2026-04-21 19:57 | 47.30222 | -3.65282 | 36989 ft | 423 kts | 185° |
| 2026-04-21 19:58 | 47.24342 | -3.65563 | 36989 ft | 423 kts | 185° |
| 2026-04-21 19:58 | 47.18460 | -3.65841 | 36998 ft | 423 kts | 185° |
| 2026-04-21 19:59 | 47.12581 | -3.66121 | 36996 ft | 423 kts | 185° |
| 2026-04-21 19:59 | 47.06705 | -3.66401 | 36981 ft | 422 kts | 185° |
| 2026-04-21 20:00 | 47.00880 | -3.66680 | 36991 ft | 422 kts | 185° |
| 2026-04-21 20:00 | 46.95018 | -3.66959 | 36987 ft | 421 kts | 185° |
| 2026-04-21 20:01 | 46.89163 | -3.67242 | 36970 ft | 421 kts | 185° |
| 2026-04-21 20:01 | 46.83318 | -3.67524 | 36992 ft | 420 kts | 185° |
| 2026-04-21 20:02 | 46.77481 | -3.67790 | 36991 ft | 419 kts | 185° |
| 2026-04-21 20:02 | 46.71660 | -3.68063 | 36985 ft | 418 kts | 185° |
| 2026-04-21 20:03 | 46.65851 | -3.68347 | 36976 ft | 418 kts | 185° |
| 2026-04-21 20:03 | 46.60043 | -3.68619 | 36974 ft | 417 kts | 185° |
| 2026-04-21 20:04 | 46.54289 | -3.68894 | 36968 ft | 416 kts | 185° |
| 2026-04-21 20:04 | 46.48499 | -3.69175 | 36952 ft | 416 kts | 185° |
| 2026-04-21 20:05 | 46.42707 | -3.69440 | 36939 ft | 416 kts | 185° |
| 2026-04-21 20:05 | 46.36919 | -3.69692 | 36940 ft | 416 kts | 185° |
| 2026-04-21 20:06 | 46.31135 | -3.69991 | 36932 ft | 415 kts | 186° |
| 2026-04-21 20:06 | 46.25387 | -3.70751 | 36922 ft | 414 kts | 189° |
| 2026-04-21 20:07 | 46.19663 | -3.71747 | 36916 ft | 414 kts | 189° |
| 2026-04-21 20:07 | 46.13929 | -3.72677 | 36915 ft | 415 kts | 188° |
| 2026-04-21 20:08 | 46.08190 | -3.73534 | 36903 ft | 415 kts | 188° |
| 2026-04-21 20:08 | 46.02448 | -3.74374 | 36895 ft | 415 kts | 188° |
| 2026-04-21 20:09 | 45.96706 | -3.75219 | 36905 ft | 415 kts | 188° |
| 2026-04-21 20:09 | 45.90967 | -3.76066 | 36900 ft | 415 kts | 188° |
| 2026-04-21 20:10 | 45.85229 | -3.76903 | 36888 ft | 414 kts | 188° |
| 2026-04-21 20:10 | 45.79498 | -3.77744 | 36901 ft | 414 kts | 188° |
| 2026-04-21 20:11 | 45.73768 | -3.78598 | 36888 ft | 414 kts | 188° |
| 2026-04-21 20:11 | 45.68039 | -3.79449 | 36884 ft | 414 kts | 188° |
| 2026-04-21 20:12 | 45.62313 | -3.80273 | 36878 ft | 414 kts | 188° |
| 2026-04-21 20:12 | 45.57553 | -3.80955 | 36881 ft | 414 kts | 188° |
| 2026-04-21 20:13 | 45.50897 | -3.81926 | 36865 ft | 414 kts | 188° |
| 2026-04-21 20:13 | 45.45175 | -3.82769 | 36868 ft | 413 kts | 188° |
| 2026-04-21 20:14 | 45.39456 | -3.83598 | 36864 ft | 413 kts | 188° |
| 2026-04-21 20:14 | 45.33726 | -3.84426 | 36868 ft | 413 kts | 188° |
| 2026-04-21 20:15 | 45.28003 | -3.85245 | 36853 ft | 414 kts | 188° |
| 2026-04-21 20:15 | 45.22277 | -3.86073 | 36867 ft | 414 kts | 188° |
| 2026-04-21 20:16 | 45.16550 | -3.86906 | 36874 ft | 413 kts | 188° |
| 2026-04-21 20:16 | 45.10840 | -3.87733 | 36868 ft | 412 kts | 188° |
| 2026-04-21 20:17 | 45.05139 | -3.88542 | 36869 ft | 412 kts | 188° |
| 2026-04-21 20:17 | 44.99444 | -3.89347 | 36862 ft | 411 kts | 188° |
| 2026-04-21 20:18 | 44.94714 | -3.90020 | 36860 ft | 411 kts | 188° |
| 2026-04-21 20:18 | 44.88074 | -3.90963 | 36851 ft | 410 kts | 188° |
| 2026-04-21 20:19 | 44.82398 | -3.91776 | 36848 ft | 410 kts | 188° |
| 2026-04-21 20:19 | 44.76728 | -3.92584 | 36836 ft | 409 kts | 188° |
| 2026-04-21 20:20 | 44.71064 | -3.93384 | 36830 ft | 409 kts | 188° |
| 2026-04-21 20:20 | 44.65441 | -3.94177 | 36824 ft | 409 kts | 188° |
| 2026-04-21 20:21 | 44.59776 | -3.94968 | 36818 ft | 409 kts | 188° |
| 2026-04-21 20:21 | 44.54111 | -3.95770 | 36813 ft | 409 kts | 188° |
| 2026-04-21 20:22 | 44.48448 | -3.96573 | 36813 ft | 409 kts | 188° |
| 2026-04-21 20:22 | 44.39953 | -3.97764 | 36813 ft | 409 kts | 188° |
| 2026-04-21 20:23 | 44.34292 | -3.98558 | 36810 ft | 409 kts | 187° |
| 2026-04-21 20:23 | 44.28587 | -3.98335 | 36806 ft | 411 kts | 178° |
| 2026-04-21 20:24 | 44.22879 | -3.97770 | 36799 ft | 411 kts | 179° |
| 2026-04-21 20:24 | 44.17175 | -3.97213 | 36799 ft | 411 kts | 179° |
| 2026-04-21 20:25 | 44.11477 | -3.96654 | 36792 ft | 410 kts | 178° |
| 2026-04-21 20:25 | 44.05786 | -3.96095 | 36792 ft | 410 kts | 178° |
| 2026-04-21 20:26 | 44.00098 | -3.95545 | 36787 ft | 409 kts | 179° |
| 2026-04-21 20:26 | 43.94419 | -3.95006 | 36784 ft | 409 kts | 178° |
| 2026-04-21 20:27 | 43.88778 | -3.94460 | 36782 ft | 409 kts | 178° |
| 2026-04-21 20:27 | 43.83068 | -3.93908 | 36781 ft | 409 kts | 178° |
| 2026-04-21 20:28 | 43.77430 | -3.93364 | 36780 ft | 409 kts | 178° |
| 2026-04-21 20:28 | 43.71758 | -3.92812 | 36775 ft | 409 kts | 178° |
| 2026-04-21 20:29 | 43.66087 | -3.92261 | 36778 ft | 409 kts | 178° |
| 2026-04-21 20:29 | 43.60417 | -3.91716 | 36786 ft | 409 kts | 178° |
| 2026-04-21 20:30 | 43.54739 | -3.91172 | 36789 ft | 409 kts | 179° |
| 2026-04-21 20:30 | 43.49990 | -3.90716 | 36796 ft | 408 kts | 179° |
| 2026-04-21 20:31 | 43.44325 | -3.90356 | 36800 ft | 406 kts | 186° |
| 2026-04-21 20:31 | 43.38752 | -3.91178 | 36801 ft | 405 kts | 188° |
| 2026-04-21 20:32 | 43.33141 | -3.92015 | 36800 ft | 406 kts | 188° |
| 2026-04-21 20:32 | 43.27527 | -3.92840 | 36808 ft | 406 kts | 188° |
| 2026-04-21 20:33 | 43.21914 | -3.93665 | 36818 ft | 406 kts | 188° |
| 2026-04-21 20:33 | 43.16299 | -3.94490 | 36827 ft | 405 kts | 188° |
| 2026-04-21 20:34 | 43.10689 | -3.95317 | 36829 ft | 406 kts | 188° |
| 2026-04-21 20:34 | 43.05070 | -3.96138 | 36835 ft | 406 kts | 188° |
| 2026-04-21 20:35 | 42.99449 | -3.96962 | 36857 ft | 406 kts | 188° |
| 2026-04-21 20:35 | 42.93828 | -3.97790 | 36853 ft | 407 kts | 188° |
| 2026-04-21 20:36 | 42.88199 | -3.98615 | 36858 ft | 407 kts | 188° |
| 2026-04-21 20:36 | 42.82569 | -3.99432 | 36862 ft | 407 kts | 188° |
| 2026-04-21 20:37 | 42.76934 | -4.00253 | 36870 ft | 407 kts | 188° |
| 2026-04-21 20:37 | 42.71301 | -4.01073 | 36873 ft | 407 kts | 188° |
| 2026-04-21 20:38 | 42.65666 | -4.01894 | 36880 ft | 407 kts | 188° |
| 2026-04-21 20:38 | 42.60030 | -4.02701 | 36883 ft | 407 kts | 188° |
| 2026-04-21 20:39 | 42.54395 | -4.03512 | 36885 ft | 407 kts | 188° |
| 2026-04-21 20:39 | 42.48765 | -4.04324 | 36878 ft | 407 kts | 188° |
| 2026-04-21 20:40 | 42.43135 | -4.05142 | 36882 ft | 407 kts | 188° |
| 2026-04-21 20:40 | 42.37506 | -4.05957 | 36888 ft | 407 kts | 188° |
| 2026-04-21 20:41 | 42.31879 | -4.06768 | 36884 ft | 407 kts | 188° |
| 2026-04-21 20:41 | 42.26254 | -4.07574 | 36889 ft | 407 kts | 188° |
| 2026-04-21 20:42 | 42.20627 | -4.08376 | 36892 ft | 406 kts | 188° |
| 2026-04-21 20:42 | 42.15004 | -4.09181 | 36892 ft | 406 kts | 188° |
| 2026-04-21 20:43 | 42.09376 | -4.09990 | 36886 ft | 407 kts | 188° |
| 2026-04-21 20:43 | 42.03747 | -4.10786 | 36888 ft | 407 kts | 188° |
| 2026-04-21 20:44 | 41.98105 | -4.11512 | 36894 ft | 408 kts | 187° |
| 2026-04-21 20:44 | 41.92450 | -4.12121 | 36895 ft | 408 kts | 187° |
| 2026-04-21 20:45 | 41.86796 | -4.12732 | 36891 ft | 408 kts | 187° |
| 2026-04-21 20:45 | 41.81144 | -4.13363 | 36892 ft | 407 kts | 187° |
| 2026-04-21 20:46 | 41.75496 | -4.14009 | 36898 ft | 408 kts | 187° |
| 2026-04-21 20:46 | 41.69840 | -4.14656 | 36885 ft | 408 kts | 187° |
| 2026-04-21 20:47 | 41.64182 | -4.15296 | 36882 ft | 408 kts | 187° |
| 2026-04-21 20:47 | 41.58557 | -4.15933 | 36880 ft | 409 kts | 187° |
| 2026-04-21 20:48 | 41.52846 | -4.16582 | 36885 ft | 409 kts | 187° |
| 2026-04-21 20:48 | 41.47206 | -4.17221 | 36883 ft | 410 kts | 187° |
| 2026-04-21 20:49 | 41.41526 | -4.17863 | 36885 ft | 410 kts | 187° |
| 2026-04-21 20:49 | 41.35841 | -4.18504 | 36890 ft | 410 kts | 187° |
| 2026-04-21 20:50 | 41.30160 | -4.19141 | 36894 ft | 410 kts | 187° |
| 2026-04-21 20:50 | 41.24476 | -4.19774 | 36893 ft | 410 kts | 187° |
| 2026-04-21 20:51 | 41.18791 | -4.20402 | 36892 ft | 410 kts | 187° |
| 2026-04-21 20:51 | 41.13105 | -4.21036 | 36901 ft | 410 kts | 188° |
| 2026-04-21 20:52 | 41.07411 | -4.21676 | 36904 ft | 411 kts | 188° |
| 2026-04-21 20:52 | 41.01713 | -4.22307 | 36910 ft | 411 kts | 188° |
| 2026-04-21 20:53 | 40.96021 | -4.22933 | 36918 ft | 410 kts | 188° |
| 2026-04-21 20:53 | 40.90338 | -4.23566 | 36923 ft | 409 kts | 188° |
| 2026-04-21 20:54 | 40.84666 | -4.24197 | 36928 ft | 409 kts | 188° |
| 2026-04-21 20:54 | 40.78955 | -4.24827 | 36914 ft | 408 kts | 188° |
| 2026-04-21 20:55 | 40.73296 | -4.25456 | 36919 ft | 408 kts | 188° |
| 2026-04-21 20:55 | 40.67642 | -4.26072 | 36921 ft | 408 kts | 188° |
| 2026-04-21 20:56 | 40.61989 | -4.26692 | 36928 ft | 408 kts | 188° |
| 2026-04-21 20:56 | 40.56378 | -4.27313 | 36909 ft | 407 kts | 188° |
| 2026-04-21 20:57 | 40.50730 | -4.27918 | 36909 ft | 407 kts | 187° |
| 2026-04-21 20:57 | 40.45080 | -4.28527 | 36899 ft | 407 kts | 188° |
| 2026-04-21 20:58 | 40.39436 | -4.29142 | 36860 ft | 407 kts | 188° |
| 2026-04-21 20:58 | 40.33787 | -4.29761 | 36858 ft | 408 kts | 187° |
| 2026-04-21 20:59 | 40.28111 | -4.30376 | 36850 ft | 410 kts | 187° |
| 2026-04-21 20:59 | 40.22421 | -4.30994 | 36849 ft | 411 kts | 187° |
| 2026-04-21 21:00 | 40.16713 | -4.31604 | 36841 ft | 412 kts | 188° |
| 2026-04-21 21:00 | 40.10992 | -4.32227 | 36841 ft | 413 kts | 188° |
| 2026-04-21 21:01 | 40.05263 | -4.32851 | 36847 ft | 413 kts | 188° |
| 2026-04-21 21:01 | 39.99523 | -4.33468 | 36850 ft | 414 kts | 188° |
| 2026-04-21 21:02 | 39.93803 | -4.34243 | 36843 ft | 413 kts | 191° |
| 2026-04-21 21:02 | 39.88155 | -4.35492 | 36857 ft | 411 kts | 193° |
| 2026-04-21 21:03 | 39.82534 | -4.36838 | 36863 ft | 411 kts | 193° |
| 2026-04-21 21:03 | 39.76905 | -4.38102 | 36863 ft | 410 kts | 192° |
| 2026-04-21 21:04 | 39.71271 | -4.39300 | 36858 ft | 410 kts | 192° |
| 2026-04-21 21:04 | 39.65641 | -4.40481 | 36869 ft | 410 kts | 192° |
| 2026-04-21 21:05 | 39.60011 | -4.41673 | 36872 ft | 410 kts | 192° |
| 2026-04-21 21:05 | 39.54384 | -4.42869 | 36880 ft | 410 kts | 192° |
| 2026-04-21 21:06 | 39.48750 | -4.44060 | 36859 ft | 410 kts | 192° |
| 2026-04-21 21:06 | 39.43117 | -4.45250 | 36852 ft | 411 kts | 192° |
| 2026-04-21 21:07 | 39.37461 | -4.46453 | 36856 ft | 412 kts | 192° |
| 2026-04-21 21:07 | 39.31794 | -4.47664 | 36859 ft | 413 kts | 192° |
| 2026-04-21 21:08 | 39.26109 | -4.48870 | 36859 ft | 414 kts | 192° |
| 2026-04-21 21:08 | 39.20682 | -4.51104 | 36868 ft | 408 kts | 210° |
| 2026-04-21 21:09 | 39.15911 | -4.55035 | 36872 ft | 407 kts | 215° |
| 2026-04-21 21:09 | 39.11188 | -4.59073 | 36873 ft | 408 kts | 216° |
| 2026-04-21 21:10 | 39.06436 | -4.63114 | 36864 ft | 410 kts | 215° |
| 2026-04-21 21:10 | 39.01699 | -4.67138 | 36857 ft | 411 kts | 215° |
| 2026-04-21 21:11 | 38.96888 | -4.71219 | 36874 ft | 411 kts | 215° |
| 2026-04-21 21:11 | 38.92117 | -4.75261 | 36871 ft | 411 kts | 215° |
| 2026-04-21 21:12 | 38.87346 | -4.79301 | 36877 ft | 411 kts | 215° |
| 2026-04-21 21:12 | 38.82600 | -4.83301 | 36883 ft | 411 kts | 215° |
| 2026-04-21 21:13 | 38.77823 | -4.87325 | 36870 ft | 411 kts | 215° |
| 2026-04-21 21:13 | 38.73037 | -4.91352 | 36606 ft | 411 kts | 215° |
| 2026-04-21 21:14 | 38.70648 | -4.93356 | 36348 ft | 411 kts | 215° |
| 2026-04-21 21:14 | 38.68259 | -4.95357 | 36098 ft | 410 kts | 215° |
| 2026-04-21 21:14 | 38.66642 | -4.96713 | 35918 ft | 412 kts | 216° |
| 2026-04-21 21:14 | 38.64238 | -4.98734 | 35668 ft | 415 kts | 216° |
| 2026-04-21 21:15 | 38.61818 | -5.00766 | 34831 ft | 419 kts | 216° |
| 2026-04-21 21:15 | 38.59368 | -5.02823 | 33835 ft | 424 kts | 216° |
| 2026-04-21 21:15 | 38.56889 | -5.04897 | 32763 ft | 427 kts | 215° |
| 2026-04-21 21:15 | 38.54426 | -5.06952 | 32183 ft | 418 kts | 215° |
| 2026-04-21 21:16 | 38.51998 | -5.08935 | 31551 ft | 412 kts | 212° |
| 2026-04-21 21:16 | 38.49420 | -5.10484 | 30888 ft | 408 kts | 202° |
| 2026-04-21 21:16 | 38.46727 | -5.11579 | 30206 ft | 404 kts | 200° |
| 2026-04-21 21:16 | 38.44094 | -5.12608 | 29484 ft | 399 kts | 200° |
| 2026-04-21 21:17 | 38.41430 | -5.13650 | 28825 ft | 392 kts | 200° |
| 2026-04-21 21:17 | 38.38845 | -5.14661 | 28180 ft | 386 kts | 200° |
| 2026-04-21 21:17 | 38.36296 | -5.15660 | 27547 ft | 380 kts | 200° |
| 2026-04-21 21:17 | 38.33787 | -5.16643 | 26945 ft | 375 kts | 200° |
| 2026-04-21 21:18 | 38.31312 | -5.17613 | 26354 ft | 370 kts | 200° |
| 2026-04-21 21:18 | 38.28872 | -5.18566 | 25775 ft | 364 kts | 199° |
| 2026-04-21 21:18 | 38.26495 | -5.19494 | 25222 ft | 360 kts | 199° |
| 2026-04-21 21:18 | 38.24083 | -5.20433 | 24676 ft | 356 kts | 199° |
| 2026-04-21 21:19 | 38.21761 | -5.21336 | 24122 ft | 352 kts | 199° |
| 2026-04-21 21:19 | 38.19434 | -5.22241 | 23602 ft | 348 kts | 199° |
| 2026-04-21 21:19 | 38.17127 | -5.23140 | 22995 ft | 345 kts | 199° |
| 2026-04-21 21:19 | 38.14847 | -5.24029 | 22478 ft | 341 kts | 199° |
| 2026-04-21 21:20 | 38.12591 | -5.24907 | 21927 ft | 338 kts | 199° |
| 2026-04-21 21:20 | 38.10350 | -5.25777 | 21386 ft | 335 kts | 199° |
| 2026-04-21 21:20 | 38.08129 | -5.26640 | 20836 ft | 333 kts | 199° |
| 2026-04-21 21:20 | 38.05921 | -5.27496 | 20288 ft | 331 kts | 199° |
| 2026-04-21 21:21 | 38.03724 | -5.28350 | 19736 ft | 330 kts | 200° |
| 2026-04-21 21:21 | 38.01534 | -5.29201 | 19167 ft | 329 kts | 200° |
| 2026-04-21 21:21 | 37.99344 | -5.30049 | 18613 ft | 329 kts | 200° |
| 2026-04-21 21:21 | 37.97150 | -5.30895 | 18027 ft | 329 kts | 200° |
| 2026-04-21 21:22 | 37.94966 | -5.31739 | 17430 ft | 328 kts | 200° |
| 2026-04-21 21:22 | 37.92797 | -5.32579 | 16881 ft | 324 kts | 200° |
| 2026-04-21 21:22 | 37.90644 | -5.33411 | 16354 ft | 322 kts | 200° |
| 2026-04-21 21:22 | 37.88513 | -5.34233 | 15795 ft | 319 kts | 200° |
| 2026-04-21 21:23 | 37.86394 | -5.35051 | 15258 ft | 317 kts | 200° |
| 2026-04-21 21:23 | 37.84294 | -5.35859 | 14721 ft | 313 kts | 199° |
| 2026-04-21 21:23 | 37.82256 | -5.36641 | 14189 ft | 304 kts | 199° |
| 2026-04-21 21:23 | 37.80240 | -5.37415 | 13670 ft | 302 kts | 199° |
| 2026-04-21 21:24 | 37.78240 | -5.38189 | 13104 ft | 295 kts | 200° |
| 2026-04-21 21:24 | 37.76448 | -5.39235 | 12585 ft | 274 kts | 213° |
| 2026-04-21 21:24 | 37.74985 | -5.40676 | 12122 ft | 260 kts | 221° |
| 2026-04-21 21:24 | 37.73649 | -5.42193 | 11653 ft | 258 kts | 220° |
| 2026-04-21 21:25 | 37.72310 | -5.43702 | 11180 ft | 257 kts | 220° |
| 2026-04-21 21:25 | 37.70975 | -5.45200 | 10711 ft | 256 kts | 220° |
| 2026-04-21 21:25 | 37.69664 | -5.46663 | 10247 ft | 254 kts | 220° |
| 2026-04-21 21:25 | 37.68340 | -5.48144 | 10134 ft | 251 kts | 220° |
| 2026-04-21 21:26 | 37.67028 | -5.49613 | 10056 ft | 253 kts | 220° |
| 2026-04-21 21:26 | 37.65676 | -5.51020 | 9953 ft | 252 kts | 212° |
| 2026-04-21 21:26 | 37.64091 | -5.51968 | 9612 ft | 254 kts | 199° |
| 2026-04-21 21:26 | 37.62441 | -5.52589 | 8935 ft | 249 kts | 198° |
| 2026-04-21 21:27 | 37.60777 | -5.53197 | 8332 ft | 248 kts | 198° |
| 2026-04-21 21:27 | 37.59117 | -5.53803 | 7760 ft | 248 kts | 198° |
| 2026-04-21 21:27 | 37.57457 | -5.54413 | 7182 ft | 249 kts | 198° |
| 2026-04-21 21:27 | 37.55788 | -5.55029 | 6614 ft | 250 kts | 198° |
| 2026-04-21 21:28 | 37.54112 | -5.55648 | 6035 ft | 251 kts | 198° |
| 2026-04-21 21:28 | 37.52437 | -5.56270 | 5497 ft | 251 kts | 198° |
| 2026-04-21 21:28 | 37.49102 | -5.57509 | 4317 ft | 251 kts | 197° |
| 2026-04-21 21:29 | 37.47442 | -5.58125 | 4000 ft | 242 kts | 197° |
| 2026-04-21 21:29 | 37.45887 | -5.58705 | 3939 ft | 224 kts | 197° |
| 2026-04-21 21:29 | 37.44446 | -5.59243 | 3897 ft | 208 kts | 198° |
| 2026-04-21 21:29 | 37.43197 | -5.59998 | 3834 ft | 194 kts | 217° |
| 2026-04-21 21:30 | 37.42320 | -5.61224 | 3760 ft | 186 kts | 237° |
| 2026-04-21 21:30 | 37.41886 | -5.62723 | 3684 ft | 183 kts | 256° |
| 2026-04-21 21:30 | 37.41842 | -5.64334 | 3596 ft | 185 kts | 264° |
| 2026-04-21 21:30 | 37.41842 | -5.65938 | 3403 ft | 182 kts | 264° |
| 2026-04-21 21:31 | 37.41841 | -5.67531 | 3183 ft | 182 kts | 264° |
| 2026-04-21 21:31 | 37.41839 | -5.69123 | 2949 ft | 182 kts | 264° |
| 2026-04-21 21:31 | 37.41837 | -5.70715 | 2714 ft | 182 kts | 264° |
| 2026-04-21 21:31 | 37.41834 | -5.72311 | 2499 ft | 182 kts | 265° |
| 2026-04-21 21:32 | 37.41833 | -5.73850 | 2272 ft | 166 kts | 265° |
| 2026-04-21 21:32 | 37.41832 | -5.75228 | 2035 ft | 150 kts | 265° |
| 2026-04-21 21:32 | 37.41829 | -5.76481 | 1849 ft | 138 kts | 265° |
| 2026-04-21 21:32 | 37.41827 | -5.77618 | 1685 ft | 123 kts | 265° |
| 2026-04-21 21:33 | 37.41824 | -5.78671 | 1502 ft | 119 kts | 264° |
| 2026-04-21 21:33 | 37.41821 | -5.79700 | 1363 ft | 116 kts | 265° |
| 2026-04-21 21:33 | 37.41819 | -5.80705 | 1208 ft | 114 kts | 266° |
| 2026-04-21 21:33 | 37.41816 | -5.81705 | 1051 ft | 114 kts | 266° |
| 2026-04-21 21:34 | 37.41813 | -5.82704 | 906 ft | 115 kts | 266° |
| 2026-04-21 21:34 | 37.41810 | -5.83715 | 747 ft | 117 kts | 265° |
| 2026-04-21 21:34 | 37.41807 | -5.84738 | 577 ft | 117 kts | 266° |
| 2026-04-21 21:34 | 37.41806 | -5.85764 | 394 ft | 117 kts | 267° |
| 2026-04-21 21:35 | 37.41807 | -5.86773 | 235 ft | 114 kts | 267° |
| 2026-04-21 21:35 | 37.41811 | -5.87769 | 142 ft | 114 kts | 267° |
| 2026-04-21 21:35 | 37.41793 | -5.88653 | 105 ft | 89 kts | 269° |
| 2026-04-21 21:35 | 37.41785 | -5.89704 | 302 ft | 150 kts | 268° |
| 2026-04-21 21:36 | 37.41794 | -5.91087 | 1260 ft | 171 kts | 267° |
| 2026-04-21 21:36 | 37.41895 | -5.92799 | 1471 ft | 225 kts | 283° |
| 2026-04-21 21:36 | 37.42919 | -5.94525 | 1761 ft | 266 kts | 325° |
| 2026-04-21 21:36 | 37.44446 | -5.95157 | 4112 ft | 210 kts | 352° |
| 2026-04-21 21:37 | 37.45875 | -5.94829 | 5321 ft | 217 kts | 28° |
| 2026-04-21 21:37 | 37.47117 | -5.93626 | 5636 ft | 237 kts | 47° |
| 2026-04-21 21:37 | 37.48304 | -5.92040 | 5875 ft | 264 kts | 50° |
| 2026-04-21 21:37 | 37.49599 | -5.90292 | 5981 ft | 272 kts | 48° |
| 2026-04-21 21:38 | 37.50932 | -5.88629 | 6006 ft | 274 kts | 45° |
| 2026-04-21 21:38 | 37.52339 | -5.87014 | 6005 ft | 274 kts | 43° |
| 2026-04-21 21:38 | 37.53782 | -5.85460 | 5825 ft | 267 kts | 40° |
| 2026-04-21 21:38 | 37.55177 | -5.84027 | 5528 ft | 253 kts | 39° |
| 2026-04-21 21:39 | 37.56536 | -5.82661 | 5233 ft | 248 kts | 39° |
| 2026-04-21 21:39 | 37.57881 | -5.81323 | 4947 ft | 245 kts | 39° |
| 2026-04-21 21:39 | 37.59182 | -5.79999 | 4653 ft | 233 kts | 46° |
| 2026-04-21 21:39 | 37.60071 | -5.78373 | 4342 ft | 223 kts | 73° |
| 2026-04-21 21:40 | 37.60332 | -5.76499 | 4054 ft | 215 kts | 99° |
| 2026-04-21 21:40 | 37.59970 | -5.74720 | 3756 ft | 207 kts | 123° |
| 2026-04-21 21:40 | 37.59114 | -5.73320 | 3461 ft | 199 kts | 145° |
| 2026-04-21 21:40 | 37.57965 | -5.72378 | 3172 ft | 197 kts | 153° |
| 2026-04-21 21:41 | 37.56801 | -5.71503 | 3001 ft | 191 kts | 154° |
| 2026-04-21 21:41 | 37.55697 | -5.70665 | 2982 ft | 181 kts | 154° |
| 2026-04-21 21:41 | 37.54626 | -5.69855 | 2991 ft | 179 kts | 155° |
| 2026-04-21 21:41 | 37.53562 | -5.69051 | 2995 ft | 178 kts | 155° |
| 2026-04-21 21:42 | 37.52500 | -5.68251 | 2995 ft | 177 kts | 154° |
| 2026-04-21 21:42 | 37.51444 | -5.67453 | 2996 ft | 177 kts | 154° |
| 2026-04-21 21:42 | 37.50388 | -5.66656 | 2996 ft | 177 kts | 154° |
| 2026-04-21 21:42 | 37.49334 | -5.65862 | 2996 ft | 177 kts | 154° |
| 2026-04-21 21:43 | 37.48277 | -5.65068 | 2998 ft | 177 kts | 154° |
| 2026-04-21 21:43 | 37.47214 | -5.64271 | 2997 ft | 178 kts | 154° |
| 2026-04-21 21:43 | 37.46146 | -5.63466 | 2995 ft | 179 kts | 154° |
| 2026-04-21 21:43 | 37.45075 | -5.62659 | 2996 ft | 180 kts | 155° |
| 2026-04-21 21:44 | 37.43919 | -5.62213 | 2980 ft | 172 kts | 184° |
| 2026-04-21 21:44 | 37.42792 | -5.62613 | 2990 ft | 170 kts | 213° |
| 2026-04-21 21:44 | 37.42007 | -5.63742 | 2768 ft | 176 kts | 244° |
| 2026-04-21 21:44 | 37.41820 | -5.65314 | 2333 ft | 193 kts | 264° |
| 2026-04-21 21:45 | 37.41832 | -5.67045 | 1845 ft | 194 kts | 266° |
| 2026-04-21 21:45 | 37.41839 | -5.68670 | 1514 ft | 174 kts | 268° |
| 2026-04-21 21:45 | 37.41841 | -5.70072 | 1489 ft | 148 kts | 265° |
| 2026-04-21 21:45 | 37.41840 | -5.71271 | 1484 ft | 128 kts | 265° |
| 2026-04-21 21:46 | 37.41837 | -5.72371 | 1516 ft | 122 kts | 266° |
| 2026-04-21 21:46 | 37.41834 | -5.73422 | 1510 ft | 118 kts | 264° |
| 2026-04-21 21:46 | 37.41832 | -5.74448 | 1510 ft | 116 kts | 264° |
| 2026-04-21 21:46 | 37.41829 | -5.75450 | 1506 ft | 113 kts | 264° |
| 2026-04-21 21:47 | 37.41827 | -5.76440 | 1504 ft | 113 kts | 266° |
| 2026-04-21 21:47 | 37.41825 | -5.77431 | 1502 ft | 114 kts | 264° |
| 2026-04-21 21:47 | 37.41822 | -5.78441 | 1453 ft | 116 kts | 264° |
| 2026-04-21 21:47 | 37.41820 | -5.79456 | 1347 ft | 116 kts | 264° |
| 2026-04-21 21:48 | 37.41818 | -5.80469 | 1219 ft | 115 kts | 266° |
| 2026-04-21 21:48 | 37.41816 | -5.81460 | 1074 ft | 115 kts | 265° |
| 2026-04-21 21:48 | 37.41813 | -5.82460 | 931 ft | 115 kts | 265° |
| 2026-04-21 21:48 | 37.41811 | -5.83466 | 783 ft | 115 kts | 266° |
| 2026-04-21 21:49 | 37.41808 | -5.84496 | 630 ft | 117 kts | 265° |
| 2026-04-21 21:49 | 37.41807 | -5.85518 | 441 ft | 117 kts | 268° |
| 2026-04-21 21:49 | 37.41816 | -5.86538 | 280 ft | 115 kts | 267° |
| 2026-04-21 21:49 | 37.41805 | -5.87529 | 139 ft | 114 kts | 266° |
| 2026-04-21 21:50 | 37.41794 | -5.88437 | 107 ft | 83 kts | 269° |
| 2026-04-21 21:50 | 37.41797 | -5.88800 | 104 ft | 15 kts | 271° |
| 2026-04-21 21:50 | 37.41797 | -5.88983 | 103 ft | 24 kts | 270° |
| 2026-04-21 21:50 | 37.41817 | -5.89194 | 99 ft | 26 kts | 294° |
| 2026-04-21 21:51 | 37.41898 | -5.89296 | 99 ft | 0 kts | 327° |
| 2026-04-21 21:52 | 37.41908 | -5.89304 | 99 ft | 14 kts | 328° |
| 2026-04-21 21:52 | 37.41992 | -5.89372 | 101 ft | 14 kts | 319° |
| 2026-04-21 21:52 | 37.42070 | -5.89468 | 100 ft | 18 kts | 314° |
| 2026-04-21 21:52 | 37.42143 | -5.89565 | 99 ft | 17 kts | 314° |
| 2026-04-21 21:53 | 37.42224 | -5.89677 | 94 ft | 15 kts | 304° |
| 2026-04-21 21:53 | 37.42269 | -5.89785 | 94 ft | 7 kts | 289° |
| 2026-04-21 21:53 | 37.42293 | -5.89829 | 94 ft | 0 kts | 311° |
| 2026-04-21 21:53 | 37.42302 | -5.89840 | 94 ft | 3 kts | 313° |
| 2026-04-21 21:54 | 37.42303 | -5.89842 | 95 ft | 0 kts | 313° |